Time;durP1;ratioP1;P1;durP2;ratioP2;P2;SDS_P1;SDS_P2;PMS_P1;PMS_P2;Temp;Humidity;BMP_temperature;BMP_pressure;BME280_temperature;BME280_humidity;BME280_pressure;Samples;Min_cycle;Max_cycle;Signal;HPM_P1;HPM_P2
2023/05/22 00:00:56;;;;;;;29.05;26.08;;;17.00;99.90;;;;;;5030390;28;20427;-87
2023/05/22 00:03:23;;;;;;;29.70;26.60;;;17.00;99.90;;;;;;5030368;28;20949;-87
2023/05/22 00:05:49;;;;;;;30.67;24.63;;;17.00;99.90;;;;;;5028976;28;20426;-83
2023/05/22 00:08:14;;;;;;;28.27;25.13;;;17.20;99.90;;;;;;5032290;28;20427;-91
2023/05/22 00:10:41;;;;;;;28.48;25.45;;;17.20;99.90;;;;;;5031808;28;20422;-88
2023/05/22 00:13:07;;;;;;;28.00;25.45;;;17.30;99.90;;;;;;5034517;28;20838;-89
2023/05/22 00:15:33;;;;;;;32.17;27.08;;;17.30;99.90;;;;;;5030678;28;20431;-81
2023/05/22 00:17:58;;;;;;;28.47;25.50;;;17.20;99.90;;;;;;5029727;28;20438;-88
2023/05/22 00:20:25;;;;;;;29.33;26.23;;;17.20;99.90;;;;;;5033361;28;20423;-86
2023/05/22 00:22:51;;;;;;;28.13;25.10;;;17.20;99.90;;;;;;5032035;28;20433;-87
2023/05/22 00:25:18;;;;;;;27.83;24.83;;;17.30;99.90;;;;;;5031966;28;20439;-84
2023/05/22 00:27:44;;;;;;;27.45;24.83;;;17.20;99.90;;;;;;5027088;28;20423;-87
2023/05/22 00:30:10;;;;;;;27.55;24.63;;;17.20;99.90;;;;;;5030000;28;20484;-81
2023/05/22 00:32:36;;;;;;;29.65;26.52;;;17.40;99.90;;;;;;5032051;28;20426;-89
2023/05/22 00:35:02;;;;;;;30.38;26.55;;;17.30;99.90;;;;;;5033051;28;20427;-75
2023/05/22 00:37:28;;;;;;;28.40;25.30;;;17.30;99.90;;;;;;5028977;28;20473;-87
2023/05/22 00:39:53;;;;;;;28.60;24.85;;;17.40;99.90;;;;;;5031560;28;20921;-89
2023/05/22 00:42:19;;;;;;;28.87;25.87;;;17.20;99.90;;;;;;5029842;28;20452;-83
2023/05/22 00:44:45;;;;;;;28.35;25.42;;;17.20;99.90;;;;;;5032022;28;20454;-86
2023/05/22 00:47:10;;;;;;;29.05;26.05;;;17.40;99.90;;;;;;5028480;28;20423;-89
2023/05/22 00:49:36;;;;;;;29.70;26.67;;;17.30;99.90;;;;;;5030216;28;20458;-77
2023/05/22 00:52:02;;;;;;;35.67;28.10;;;17.30;99.90;;;;;;5031318;28;20411;-86
2023/05/22 00:54:29;;;;;;;31.88;28.45;;;17.30;99.90;;;;;;5026715;28;20434;-86
2023/05/22 00:56:55;;;;;;;34.47;29.55;;;17.40;99.90;;;;;;5030265;28;20426;-82
2023/05/22 00:59:21;;;;;;;32.15;28.75;;;17.30;99.90;;;;;;5027869;28;20461;-77
2023/05/22 01:01:47;;;;;;;32.55;28.95;;;17.20;99.90;;;;;;5028232;28;21038;-88
2023/05/22 01:06:41;;;;;;;33.58;30.00;;;17.30;99.90;;;;;;5017921;28;20444;-88
2023/05/22 01:09:07;;;;;;;36.80;32.28;;;17.10;99.90;;;;;;5032868;28;20430;-80
2023/05/22 01:11:57;;;;;;;33.28;29.88;;;17.20;99.90;;;;;;5031350;28;20466;-87
2023/05/22 01:15:02;;;;;;;32.30;28.60;;;17.10;99.90;;;;;;5014395;28;20491;-76
2023/05/22 01:17:36;;;;;;;32.88;29.65;;;17.10;99.90;;;;;;5035166;28;20423;-76
2023/05/22 01:20:13;;;;;;;32.33;29.03;;;17.20;99.90;;;;;;5034955;28;20449;-74
2023/05/22 01:22:39;;;;;;;33.87;30.60;;;17.10;99.90;;;;;;5023185;28;20432;-79
2023/05/22 01:25:30;;;;;;;31.75;28.50;;;17.00;99.90;;;;;;5026423;28;21176;-86
2023/05/22 01:28:35;;;;;;;34.30;30.63;;;17.10;99.90;;;;;;5022001;28;20453;-82
2023/05/22 01:31:24;;;;;;;33.22;29.63;;;16.80;99.90;;;;;;5021648;28;20445;-81
2023/05/22 01:33:59;;;;;;;34.80;30.98;;;16.70;99.90;;;;;;5009885;28;20434;-79
2023/05/22 01:36:29;;;;;;;34.22;30.65;;;16.80;99.90;;;;;;5026764;28;20421;-80
2023/05/22 01:38:57;;;;;;;33.78;30.38;;;16.80;99.90;;;;;;5027465;28;20456;-87
2023/05/22 01:41:23;;;;;;;35.87;32.20;;;16.80;99.90;;;;;;5025361;28;20441;-73
2023/05/22 01:43:49;;;;;;;34.35;30.85;;;16.90;99.90;;;;;;5011398;28;20787;-74
2023/05/22 01:46:15;;;;;;;34.67;31.08;;;16.70;99.90;;;;;;5025998;28;20446;-75
2023/05/22 01:48:40;;;;;;;33.40;30.03;;;16.50;99.90;;;;;;5034826;28;20486;-74
2023/05/22 01:51:19;;;;;;;33.95;30.42;;;16.50;99.90;;;;;;5038002;28;20459;-74
2023/05/22 01:54:11;;;;;;;34.95;31.65;;;16.60;99.90;;;;;;5032934;28;21508;-80
2023/05/22 01:57:17;;;;;;;33.97;30.33;;;16.80;99.90;;;;;;5007559;28;20441;-75
2023/05/22 01:59:53;;;;;;;37.90;33.17;;;16.50;99.90;;;;;;4969700;28;20505;-75
2023/05/22 02:02:20;;;;;;;37.22;33.35;;;16.60;99.90;;;;;;4946560;29;20521;-80
2023/05/22 02:04:51;;;;;;;37.15;33.28;;;16.60;99.90;;;;;;4996952;28;20443;-81
2023/05/22 02:07:19;;;;;;;39.35;35.33;;;16.40;99.90;;;;;;5024084;28;20446;-88
2023/05/22 02:09:46;;;;;;;35.97;32.28;;;16.70;99.90;;;;;;5032068;28;20423;-90
2023/05/22 02:12:12;;;;;;;38.78;34.63;;;16.70;99.90;;;;;;5022958;28;20517;-80
2023/05/22 02:14:38;;;;;;;38.65;34.63;;;16.90;99.90;;;;;;5030243;28;20437;-82
2023/05/22 02:17:04;;;;;;;37.97;34.05;;;16.70;99.90;;;;;;5024651;28;20487;-83
2023/05/22 02:19:32;;;;;;;38.85;34.72;;;16.80;99.90;;;;;;5026463;28;20441;-81
2023/05/22 02:21:58;;;;;;;37.80;33.70;;;16.70;99.90;;;;;;4999705;28;20425;-76
2023/05/22 02:24:24;;;;;;;36.15;32.70;;;16.50;99.90;;;;;;5013401;28;20903;-90
2023/05/22 02:26:50;;;;;;;38.58;34.60;;;16.80;99.90;;;;;;5004788;28;20424;-85
2023/05/22 02:29:15;;;;;;;36.17;32.37;;;16.70;99.90;;;;;;5000674;28;20438;-80
2023/05/22 02:31:41;;;;;;;38.35;34.45;;;16.50;99.90;;;;;;5009939;28;20422;-83
2023/05/22 02:34:07;;;;;;;39.88;32.85;;;16.70;99.90;;;;;;5000615;28;20441;-89
2023/05/22 02:36:32;;;;;;;38.30;34.10;;;16.80;99.90;;;;;;5009367;28;20799;-78
2023/05/22 02:38:58;;;;;;;37.08;33.17;;;16.70;99.90;;;;;;5013355;28;20455;-84
2023/05/22 02:41:24;;;;;;;41.00;36.80;;;16.60;99.90;;;;;;5012828;28;20467;-77
2023/05/22 02:43:49;;;;;;;40.25;35.95;;;16.70;99.90;;;;;;5021644;28;20427;-85
2023/05/22 02:46:15;;;;;;;41.23;37.03;;;16.70;99.90;;;;;;4997634;28;20434;-90
2023/05/22 02:48:41;;;;;;;39.07;35.10;;;16.70;99.90;;;;;;5007308;28;20424;-90
2023/05/22 02:51:07;;;;;;;40.28;35.83;;;16.70;99.90;;;;;;5024438;28;20442;-86
2023/05/22 02:53:34;;;;;;;39.33;35.13;;;16.70;99.90;;;;;;4994668;28;20479;-89
2023/05/22 02:55:59;;;;;;;39.92;35.80;;;16.70;99.90;;;;;;5014441;28;20494;-90
2023/05/22 02:58:25;;;;;;;43.15;38.67;;;16.60;99.90;;;;;;5017901;28;20432;-90
2023/05/22 03:00:52;;;;;;;39.17;35.03;;;16.70;99.90;;;;;;5027372;28;20421;-88
2023/05/22 03:03:18;;;;;;;37.75;33.97;;;16.70;99.90;;;;;;5014823;28;20467;-81
2023/05/22 03:05:48;;;;;;;39.93;35.87;;;16.70;99.90;;;;;;5011119;28;20431;-89
2023/05/22 03:08:14;;;;;;;38.58;34.72;;;16.30;99.90;;;;;;5016609;28;20420;-86
2023/05/22 03:10:40;;;;;;;41.85;37.42;;;16.30;99.90;;;;;;5029777;28;20431;-84
2023/05/22 03:13:06;;;;;;;39.83;35.78;;;16.50;99.90;;;;;;5001404;28;20432;-82
2023/05/22 03:15:32;;;;;;;44.40;39.80;;;16.50;99.90;;;;;;5009591;28;20435;-84
2023/05/22 03:17:57;;;;;;;46.13;39.13;;;16.40;99.90;;;;;;5025337;28;20423;-80
2023/05/22 03:20:23;;;;;;;40.17;35.87;;;16.70;99.90;;;;;;5035047;28;20457;-73
2023/05/22 03:22:48;;;;;;;40.08;35.75;;;16.50;99.90;;;;;;5040119;28;20436;-74
2023/05/22 03:25:14;;;;;;;40.07;35.80;;;16.40;99.90;;;;;;5036597;28;20423;-86
2023/05/22 03:27:40;;;;;;;41.73;36.97;;;16.50;99.90;;;;;;5019073;28;20420;-87
2023/05/22 03:30:07;;;;;;;40.65;36.55;;;16.30;99.90;;;;;;5003801;28;20432;-89
2023/05/22 03:32:36;;;;;;;40.08;35.83;;;16.60;99.90;;;;;;5019204;28;20442;-87
2023/05/22 03:35:03;;;;;;;38.55;34.67;;;16.30;99.90;;;;;;5018710;28;20753;-85
2023/05/22 03:37:29;;;;;;;38.78;34.78;;;16.50;99.90;;;;;;5017262;28;20425;-89
2023/05/22 03:39:54;;;;;;;40.85;36.58;;;16.20;99.90;;;;;;5014262;28;20460;-79
2023/05/22 03:42:20;;;;;;;39.47;35.63;;;16.50;99.90;;;;;;4986500;28;20436;-90
2023/05/22 03:44:46;;;;;;;38.63;34.88;;;16.30;99.90;;;;;;5017389;28;20440;-86
2023/05/22 03:47:11;;;;;;;39.97;35.77;;;16.50;99.90;;;;;;5001953;28;20814;-88
2023/05/22 03:49:37;;;;;;;39.30;35.30;;;16.30;99.90;;;;;;4998734;28;20447;-81
2023/05/22 03:52:03;;;;;;;39.03;35.10;;;16.30;99.90;;;;;;5012176;28;20430;-90
2023/05/22 03:54:28;;;;;;;38.30;34.60;;;16.20;99.90;;;;;;5004533;28;20455;-77
2023/05/22 03:56:54;;;;;;;38.20;34.33;;;16.20;99.90;;;;;;5022207;28;20826;-89
2023/05/22 03:59:20;;;;;;;38.72;34.63;;;16.10;99.90;;;;;;5018783;28;20458;-90
2023/05/22 04:01:47;;;;;;;42.97;36.97;;;16.30;99.90;;;;;;4994876;28;20499;-88
2023/05/22 04:04:13;;;;;;;38.00;33.90;;;16.20;99.90;;;;;;4989192;28;20527;-73
2023/05/22 04:06:41;;;;;;;38.67;34.90;;;16.30;99.90;;;;;;5017716;28;20456;-89
2023/05/22 04:09:11;;;;;;;40.10;35.90;;;16.10;99.90;;;;;;5015686;28;20473;-88
2023/05/22 04:11:40;;;;;;;38.97;35.03;;;16.30;99.90;;;;;;5023183;28;20421;-73
2023/05/22 04:14:07;;;;;;;38.45;34.28;;;16.20;99.90;;;;;;5024307;28;20835;-91
2023/05/22 04:16:33;;;;;;;37.00;32.97;;;16.10;99.90;;;;;;5022022;28;20491;-84
2023/05/22 04:19:01;;;;;;;39.40;34.60;;;16.40;99.90;;;;;;5021661;28;20532;-87
2023/05/22 04:21:28;;;;;;;38.95;34.88;;;16.30;99.90;;;;;;5018069;28;20434;-79
2023/05/22 04:23:54;;;;;;;41.05;35.03;;;16.20;99.90;;;;;;5021155;28;20507;-90
2023/05/22 04:26:19;;;;;;;39.40;34.90;;;16.20;99.90;;;;;;5016608;28;20444;-89
2023/05/22 04:28:46;;;;;;;41.77;36.63;;;16.40;99.90;;;;;;5034647;28;20992;-82
2023/05/22 04:31:12;;;;;;;41.13;36.78;;;16.30;99.90;;;;;;5020977;28;20426;-88
2023/05/22 04:33:38;;;;;;;39.78;35.65;;;16.30;99.90;;;;;;4998903;28;20429;-88
2023/05/22 04:36:07;;;;;;;38.35;34.28;;;16.30;99.90;;;;;;5011014;28;20427;-89
2023/05/22 04:38:36;;;;;;;45.40;35.28;;;16.30;99.90;;;;;;4993800;28;20860;-76
2023/05/22 04:41:07;;;;;;;38.33;34.30;;;16.30;99.90;;;;;;5018903;28;20975;-89
2023/05/22 04:43:33;;;;;;;37.47;33.80;;;16.40;99.90;;;;;;5013567;28;20452;-91
2023/05/22 04:45:59;;;;;;;37.43;33.50;;;16.40;99.90;;;;;;5011863;28;20851;-87
2023/05/22 04:48:25;;;;;;;38.50;34.43;;;16.50;99.90;;;;;;5017776;28;20427;-89
2023/05/22 04:50:53;;;;;;;38.20;34.33;;;16.50;99.90;;;;;;5033395;28;20424;-76
2023/05/22 04:53:18;;;;;;;36.40;32.58;;;16.40;99.90;;;;;;5037681;28;20419;-73
2023/05/22 04:55:44;;;;;;;35.83;32.20;;;16.40;99.90;;;;;;5019064;28;20533;-80
2023/05/22 04:58:10;;;;;;;37.30;33.50;;;16.70;99.90;;;;;;5045173;28;20435;-80
2023/05/22 05:00:36;;;;;;;37.40;33.33;;;16.50;99.90;;;;;;5038046;28;20423;-77
2023/05/22 05:03:03;;;;;;;34.57;30.87;;;16.50;99.90;;;;;;5028016;28;20438;-89
2023/05/22 05:05:28;;;;;;;35.85;32.17;;;16.50;99.90;;;;;;5024886;28;20428;-90
2023/05/22 05:07:54;;;;;;;34.07;30.50;;;16.60;99.90;;;;;;4993383;28;20421;-92
2023/05/22 05:10:20;;;;;;;35.07;31.13;;;16.60;99.90;;;;;;5007761;28;20424;-80
2023/05/22 05:12:45;;;;;;;35.43;31.73;;;16.80;99.90;;;;;;5017525;28;21018;-91
2023/05/22 05:15:11;;;;;;;35.67;31.27;;;16.70;99.90;;;;;;5014738;28;20779;-80
2023/05/22 05:17:37;;;;;;;33.47;30.02;;;16.80;99.90;;;;;;5019583;28;21315;-88
2023/05/22 05:20:05;;;;;;;33.47;30.07;;;16.70;99.90;;;;;;5015686;28;20438;-90
2023/05/22 05:22:31;;;;;;;32.17;28.75;;;16.70;99.90;;;;;;5018425;28;20419;-75
2023/05/22 05:24:57;;;;;;;33.35;29.85;;;16.30;99.90;;;;;;5010875;28;20443;-87
2023/05/22 05:27:23;;;;;;;31.98;27.58;;;16.60;99.90;;;;;;4997885;28;20423;-91
2023/05/22 05:29:48;;;;;;;30.88;26.98;;;16.40;99.90;;;;;;5027374;28;20427;-77
2023/05/22 05:32:15;;;;;;;26.97;23.47;;;16.40;99.90;;;;;;5013238;28;20416;-91
2023/05/22 05:34:40;;;;;;;28.85;24.00;;;16.30;99.90;;;;;;5013100;28;20424;-86
2023/05/22 05:37:06;;;;;;;25.03;21.33;;;16.30;99.90;;;;;;4999365;28;20429;-86
2023/05/22 05:39:32;;;;;;;26.73;17.17;;;16.20;99.90;;;;;;5009465;28;20447;-91
2023/05/22 05:41:58;;;;;;;29.25;18.02;;;16.40;99.90;;;;;;5020896;28;20427;-85
2023/05/22 05:44:24;;;;;;;25.60;14.57;;;16.30;99.90;;;;;;5025354;28;20442;-89
2023/05/22 05:46:51;;;;;;;27.77;13.03;;;16.30;99.90;;;;;;5010179;28;20509;-85
2023/05/22 05:49:18;;;;;;;22.48;12.43;;;16.20;99.90;;;;;;4995291;28;21163;-80
2023/05/22 05:51:44;;;;;;;27.37;12.03;;;16.10;99.90;;;;;;5014530;28;20427;-89
2023/05/22 05:54:09;;;;;;;32.47;13.03;;;16.30;99.90;;;;;;5001531;28;20424;-86
2023/05/22 05:56:35;;;;;;;25.53;11.60;;;16.10;99.90;;;;;;5011296;28;20966;-87
2023/05/22 05:59:01;;;;;;;26.42;10.73;;;15.90;99.90;;;;;;5017158;28;20548;-80
2023/05/22 06:01:27;;;;;;;21.67;11.07;;;16.00;99.90;;;;;;5021625;28;20454;-85
2023/05/22 06:03:55;;;;;;;29.57;11.27;;;15.90;99.90;;;;;;5011814;28;20464;-87
2023/05/22 06:06:24;;;;;;;30.27;12.25;;;16.00;99.90;;;;;;4992630;28;20425;-90
2023/05/22 06:08:50;;;;;;;24.47;11.17;;;15.90;99.90;;;;;;5028977;28;20430;-89
2023/05/22 06:11:16;;;;;;;21.75;10.27;;;15.90;99.90;;;;;;5001527;28;20428;-91
2023/05/22 06:13:41;;;;;;;24.27;11.17;;;15.90;99.90;;;;;;5028372;28;20584;-80
2023/05/22 06:16:07;;;;;;;17.95;10.20;;;16.00;99.90;;;;;;5004840;28;20454;-88
2023/05/22 06:18:33;;;;;;;19.90;11.32;;;15.90;99.90;;;;;;5032054;28;20955;-86
2023/05/22 06:20:58;;;;;;;22.40;12.17;;;16.10;99.90;;;;;;5029220;28;20419;-79
2023/05/22 06:23:24;;;;;;;17.03;10.10;;;16.10;99.90;;;;;;5013873;28;20451;-75
2023/05/22 06:25:50;;;;;;;18.27;9.82;;;15.90;99.90;;;;;;5019227;28;20457;-91
2023/05/22 06:28:15;;;;;;;22.10;10.00;;;16.00;99.90;;;;;;5006336;28;20435;-77
2023/05/22 06:30:41;;;;;;;19.30;10.90;;;15.90;99.90;;;;;;5017042;28;21080;-89
2023/05/22 06:33:07;;;;;;;18.43;9.90;;;16.00;99.90;;;;;;5015909;28;20938;-93
2023/05/22 06:35:33;;;;;;;23.30;10.93;;;16.10;99.90;;;;;;5012776;28;20436;-92
2023/05/22 06:37:59;;;;;;;20.13;10.50;;;16.10;99.90;;;;;;5012326;28;20480;-92
2023/05/22 06:40:24;;;;;;;23.50;10.60;;;16.00;99.90;;;;;;5012603;28;20495;-79
2023/05/22 06:42:51;;;;;;;23.08;9.93;;;16.20;99.90;;;;;;5017182;28;20424;-91
2023/05/22 06:45:18;;;;;;;16.92;9.40;;;16.20;99.90;;;;;;5017067;28;20426;-73
2023/05/22 06:47:44;;;;;;;19.90;9.77;;;16.40;99.90;;;;;;5017740;28;20432;-92
2023/05/22 06:50:10;;;;;;;14.53;8.77;;;16.40;99.90;;;;;;5013726;28;20439;-77
2023/05/22 06:52:37;;;;;;;19.50;9.23;;;16.40;99.90;;;;;;5018750;28;20426;-80
2023/05/22 06:55:05;;;;;;;15.65;8.43;;;16.30;99.90;;;;;;5011022;28;20806;-90
2023/05/22 06:57:31;;;;;;;19.35;8.48;;;16.30;99.90;;;;;;5016741;28;20424;-88
2023/05/22 06:59:57;;;;;;;12.88;8.43;;;16.40;99.90;;;;;;5015491;28;20435;-89
2023/05/22 07:02:23;;;;;;;16.10;9.20;;;16.40;99.90;;;;;;5022358;28;20419;-89
2023/05/22 07:04:48;;;;;;;23.77;8.80;;;16.50;99.90;;;;;;5043405;28;20449;-75
2023/05/22 07:07:14;;;;;;;20.70;9.93;;;16.30;99.90;;;;;;5024903;28;20415;-88
2023/05/22 07:09:40;;;;;;;18.90;8.57;;;16.30;99.90;;;;;;5025329;28;20464;-92
2023/05/22 07:12:06;;;;;;;14.43;7.87;;;16.50;99.90;;;;;;5015041;28;20516;-81
2023/05/22 07:14:32;;;;;;;17.45;8.75;;;16.30;99.90;;;;;;4966492;28;20444;-92
2023/05/22 07:16:57;;;;;;;18.87;8.63;;;16.40;99.90;;;;;;5002163;28;20431;-77
2023/05/22 07:19:23;;;;;;;19.00;9.40;;;16.60;99.90;;;;;;5032033;28;20515;-83
2023/05/22 07:21:49;;;;;;;17.67;9.18;;;16.40;99.90;;;;;;5006861;28;20442;-91
2023/05/22 07:24:14;;;;;;;12.77;7.57;;;16.50;99.90;;;;;;5019010;28;20471;-83
2023/05/22 07:26:45;;;;;;;14.63;8.10;;;16.40;99.90;;;;;;5001363;28;20430;-92
2023/05/22 07:29:12;;;;;;;16.27;9.35;;;16.50;99.90;;;;;;5018853;28;20424;-85
2023/05/22 07:31:38;;;;;;;12.82;7.32;;;16.40;99.90;;;;;;5012146;28;20435;-82
2023/05/22 07:34:04;;;;;;;17.83;7.70;;;16.50;99.90;;;;;;5010484;28;20475;-84
2023/05/22 07:36:30;;;;;;;14.90;8.55;;;16.50;99.90;;;;;;5006808;28;20436;-78
2023/05/22 07:38:56;;;;;;;13.77;6.97;;;16.40;99.90;;;;;;5003169;28;20918;-81
2023/05/22 07:41:24;;;;;;;17.52;7.55;;;16.60;99.90;;;;;;5013802;28;20434;-81
2023/05/22 07:43:50;;;;;;;15.85;7.70;;;16.40;99.90;;;;;;4989537;28;20978;-77
2023/05/22 07:46:15;;;;;;;16.23;6.88;;;16.40;99.90;;;;;;5021498;28;20443;-77
2023/05/22 07:48:42;;;;;;;13.60;7.03;;;16.50;99.90;;;;;;4997153;28;20445;-77
2023/05/22 07:51:08;;;;;;;13.52;6.70;;;16.50;99.90;;;;;;4988318;28;20429;-76
2023/05/22 07:53:34;;;;;;;13.43;6.80;;;16.60;99.90;;;;;;5019921;28;20621;-79
2023/05/22 07:55:59;;;;;;;10.60;6.33;;;16.50;99.90;;;;;;5012976;28;20435;-80
2023/05/22 07:58:25;;;;;;;12.83;6.73;;;16.50;99.90;;;;;;5009651;28;20432;-86
2023/05/22 08:00:51;;;;;;;8.25;5.60;;;16.60;99.90;;;;;;5005285;28;20425;-83
2023/05/22 08:03:17;;;;;;;12.20;6.18;;;16.60;99.90;;;;;;5003913;28;20772;-83
2023/05/22 08:05:43;;;;;;;9.02;5.78;;;16.50;99.90;;;;;;4996554;28;20457;-82
2023/05/22 08:08:09;;;;;;;8.75;5.55;;;16.50;99.90;;;;;;5004719;28;20436;-85
2023/05/22 08:10:35;;;;;;;11.35;6.72;;;16.50;99.90;;;;;;5008997;28;20474;-77
2023/05/22 08:13:04;;;;;;;10.73;5.45;;;16.60;99.90;;;;;;5009285;28;20432;-86
2023/05/22 08:15:31;;;;;;;11.15;6.20;;;16.60;99.90;;;;;;4986266;28;20437;-79
2023/05/22 08:17:57;;;;;;;10.93;5.83;;;16.60;99.90;;;;;;4999712;28;20456;-75
2023/05/22 08:20:22;;;;;;;9.47;5.47;;;16.60;99.90;;;;;;5000647;28;21035;-83
2023/05/22 08:22:48;;;;;;;9.85;5.95;;;16.70;99.90;;;;;;4995190;28;22323;-81
2023/05/22 08:25:14;;;;;;;8.98;5.82;;;16.80;99.90;;;;;;5032129;28;20429;-77
2023/05/22 08:27:39;;;;;;;10.05;6.22;;;16.90;99.90;;;;;;5026502;28;20425;-86
2023/05/22 08:30:06;;;;;;;10.13;5.80;;;16.70;99.90;;;;;;5015280;28;20442;-81
2023/05/22 08:32:32;;;;;;;10.27;6.90;;;17.10;99.90;;;;;;5002958;28;20424;-81
2023/05/22 08:34:58;;;;;;;12.50;6.88;;;17.00;99.90;;;;;;5038626;28;20419;-78
2023/05/22 08:37:24;;;;;;;8.95;6.18;;;17.00;99.90;;;;;;5020950;28;20444;-80
2023/05/22 08:39:50;;;;;;;12.20;7.18;;;17.10;99.90;;;;;;5034713;28;20433;-78
2023/05/22 08:42:15;;;;;;;12.45;6.45;;;17.20;99.90;;;;;;5023035;28;20803;-78
2023/05/22 08:44:41;;;;;;;11.93;7.93;;;17.40;99.90;;;;;;5011176;28;20429;-79
2023/05/22 08:47:12;;;;;;;12.68;7.05;;;17.50;99.90;;;;;;4987688;28;20500;-79
2023/05/22 08:49:38;;;;;;;14.00;7.97;;;17.60;99.90;;;;;;5016556;28;20455;-75
2023/05/22 08:52:13;;;;;;;10.20;7.25;;;18.10;99.90;;;;;;5016553;28;20437;-83
2023/05/22 08:54:44;;;;;;;13.52;7.50;;;18.40;99.90;;;;;;5032228;28;20442;-77
2023/05/22 08:57:10;;;;;;;10.48;7.00;;;18.00;99.90;;;;;;4975054;28;20456;-77
2023/05/22 08:59:38;;;;;;;10.57;6.57;;;18.00;99.90;;;;;;4990859;28;20509;-81
2023/05/22 09:02:05;;;;;;;13.52;8.45;;;17.80;99.90;;;;;;4993138;28;20445;-85
2023/05/22 09:04:30;;;;;;;10.65;8.10;;;17.70;99.90;;;;;;5013204;28;20917;-76
2023/05/22 09:06:56;;;;;;;17.15;8.68;;;17.60;99.90;;;;;;5013567;28;20434;-80
2023/05/22 09:09:22;;;;;;;12.65;8.50;;;17.70;99.90;;;;;;5003883;28;20446;-75
2023/05/22 09:11:48;;;;;;;11.07;8.05;;;17.90;99.90;;;;;;4980217;28;20433;-79
2023/05/22 09:14:15;;;;;;;11.15;8.25;;;18.00;99.90;;;;;;5007091;28;20535;-80
2023/05/22 09:16:48;;;;;;;12.07;8.17;;;17.90;99.90;;;;;;4988545;28;20764;-78
2023/05/22 09:19:14;;;;;;;12.75;8.35;;;17.90;99.90;;;;;;5002264;28;20425;-75
2023/05/22 09:21:40;;;;;;;12.60;9.18;;;17.90;99.90;;;;;;4985880;28;20959;-77
2023/05/22 09:24:10;;;;;;;12.55;9.20;;;17.90;99.90;;;;;;5007603;28;20440;-79
2023/05/22 09:26:37;;;;;;;11.48;8.45;;;18.00;99.90;;;;;;4994833;28;20435;-75
2023/05/22 09:29:05;;;;;;;17.40;10.00;;;17.80;99.90;;;;;;5007369;28;20507;-78
2023/05/22 09:31:31;;;;;;;13.23;9.50;;;18.00;99.90;;;;;;4991192;28;20409;-77
2023/05/22 09:33:58;;;;;;;14.10;9.05;;;18.00;99.90;;;;;;5006237;28;20429;-79
2023/05/22 09:36:32;;;;;;;11.98;8.48;;;18.20;99.90;;;;;;4991009;28;20409;-80
2023/05/22 09:39:00;;;;;;;14.00;9.73;;;18.10;99.90;;;;;;5004529;28;20430;-81
2023/05/22 09:41:27;;;;;;;14.93;9.90;;;17.80;99.90;;;;;;4987708;28;20430;-80
2023/05/22 09:43:53;;;;;;;14.90;9.02;;;17.90;99.90;;;;;;4987870;28;20436;-83
2023/05/22 09:46:19;;;;;;;13.83;10.80;;;18.10;99.90;;;;;;5008561;28;20416;-81
2023/05/22 09:48:50;;;;;;;13.75;9.80;;;18.20;99.90;;;;;;5007197;28;20416;-77
2023/05/22 09:51:20;;;;;;;14.07;9.63;;;18.70;99.90;;;;;;5008313;28;20425;-78
2023/05/22 09:53:47;;;;;;;17.85;11.60;;;18.60;99.90;;;;;;4994889;28;20777;-77
2023/05/22 09:56:15;;;;;;;11.50;9.65;;;18.80;99.90;;;;;;5008138;28;20429;-77
2023/05/22 09:58:43;;;;;;;12.48;9.77;;;18.50;99.90;;;;;;5005734;28;20428;-78
2023/05/22 10:01:12;;;;;;;10.98;9.40;;;18.80;99.90;;;;;;5006223;28;20487;-79
2023/05/22 10:03:41;;;;;;;12.43;9.95;;;19.20;99.90;;;;;;5001877;28;20445;-77
2023/05/22 10:06:11;;;;;;;14.85;9.75;;;19.20;99.90;;;;;;4978501;28;20425;-77
2023/05/22 10:08:47;;;;;;;15.25;10.38;;;19.10;99.90;;;;;;5004125;28;20555;-77
2023/05/22 10:11:14;;;;;;;13.75;10.32;;;19.20;99.90;;;;;;5005803;28;20501;-76
2023/05/22 10:13:40;;;;;;;11.85;10.30;;;19.30;99.90;;;;;;5006039;28;20556;-76
2023/05/22 10:16:06;;;;;;;13.95;9.98;;;19.50;99.90;;;;;;5010441;28;20432;-78
2023/05/22 10:18:33;;;;;;;13.20;10.75;;;19.50;99.90;;;;;;5011773;28;20529;-78
2023/05/22 10:20:59;;;;;;;13.43;10.07;;;19.60;99.90;;;;;;4989851;28;20439;-75
2023/05/22 10:23:27;;;;;;;12.67;9.87;;;20.00;99.90;;;;;;5005788;28;20447;-76
2023/05/22 10:25:53;;;;;;;13.73;10.18;;;19.80;99.90;;;;;;5013402;28;20469;-77
2023/05/22 10:28:32;;;;;;;14.93;10.77;;;19.40;99.90;;;;;;4999396;28;20518;-77
2023/05/22 10:31:13;;;;;;;12.35;11.13;;;19.20;99.90;;;;;;5011663;28;20421;-75
2023/05/22 10:33:47;;;;;;;14.90;11.40;;;19.50;99.90;;;;;;5023333;28;20434;-77
2023/05/22 10:36:31;;;;;;;12.23;10.82;;;19.90;99.90;;;;;;4989710;28;20464;-78
2023/05/22 10:39:28;;;;;;;19.47;11.27;;;20.00;99.90;;;;;;5012131;28;20427;-78
2023/05/22 10:41:54;;;;;;;12.27;9.98;;;20.20;99.90;;;;;;5008985;28;20825;-76
2023/05/22 10:44:21;;;;;;;14.70;11.53;;;20.20;99.90;;;;;;5011343;28;20436;-76
2023/05/22 10:46:49;;;;;;;13.15;11.32;;;20.70;99.90;;;;;;4978204;28;20467;-78
2023/05/22 10:49:22;;;;;;;14.25;11.30;;;20.70;99.90;;;;;;5006428;28;20435;-76
2023/05/22 10:51:53;;;;;;;14.93;10.98;;;20.90;99.90;;;;;;4984414;28;20430;-77
2023/05/22 10:54:42;;;;;;;18.45;12.00;;;21.00;99.90;;;;;;5004897;28;20477;-78
2023/05/22 10:57:17;;;;;;;13.07;10.55;;;20.80;99.90;;;;;;5001977;28;20923;-77
2023/05/22 10:59:46;;;;;;;12.88;11.57;;;21.10;99.90;;;;;;5004293;28;20467;-77
2023/05/22 11:02:20;;;;;;;14.45;12.55;;;21.20;99.90;;;;;;4998570;28;20431;-77
2023/05/22 11:04:46;;;;;;;14.05;11.60;;;21.10;99.90;;;;;;4988384;28;20448;-77
2023/05/22 11:07:14;;;;;;;13.48;11.73;;;21.50;99.90;;;;;;4988634;28;20429;-77
2023/05/22 11:09:47;;;;;;;13.65;12.20;;;21.60;99.90;;;;;;4989483;28;20417;-77
2023/05/22 11:12:23;;;;;;;15.98;13.65;;;21.30;99.90;;;;;;5005983;28;20447;-77
2023/05/22 11:15:08;;;;;;;15.93;12.90;;;21.50;99.90;;;;;;5006369;28;20528;-77
2023/05/22 11:17:50;;;;;;;14.68;12.82;;;21.50;99.90;;;;;;5003465;28;20430;-78
2023/05/22 11:20:28;;;;;;;14.10;12.70;;;21.70;99.90;;;;;;4999489;28;20514;-76
2023/05/22 11:23:02;;;;;;;13.30;12.00;;;22.50;99.90;;;;;;5014990;28;20426;-77
2023/05/22 11:25:28;;;;;;;18.25;13.65;;;22.70;99.90;;;;;;5003625;28;21345;-76
2023/05/22 11:27:55;;;;;;;13.93;11.88;;;22.90;99.90;;;;;;5017942;28;20423;-76
2023/05/22 11:30:25;;;;;;;15.68;12.68;;;22.70;99.90;;;;;;5015415;28;20452;-77
2023/05/22 11:32:51;;;;;;;15.13;13.50;;;22.60;99.90;;;;;;5005641;28;20425;-77
2023/05/22 11:35:18;;;;;;;14.87;13.13;;;22.40;99.90;;;;;;5003277;28;20520;-78
2023/05/22 11:37:45;;;;;;;15.95;14.25;;;21.70;99.90;;;;;;5008528;28;20473;-77
2023/05/22 11:40:19;;;;;;;17.25;14.05;;;21.80;99.90;;;;;;5015223;28;20455;-77
2023/05/22 11:42:46;;;;;;;14.13;12.63;;;22.30;99.90;;;;;;5008430;28;20428;-78
2023/05/22 11:45:12;;;;;;;14.30;12.82;;;22.50;99.90;;;;;;5010195;28;20475;-77
2023/05/22 11:47:38;;;;;;;14.50;12.77;;;22.70;99.90;;;;;;5018457;28;20506;-78
2023/05/22 11:50:07;;;;;;;18.10;14.75;;;22.60;99.90;;;;;;5026833;28;20565;-77
2023/05/22 11:52:34;;;;;;;16.48;13.48;;;22.70;99.90;;;;;;5020205;28;20426;-76
2023/05/22 11:55:01;;;;;;;15.65;12.32;;;22.70;99.90;;;;;;5015304;28;20449;-77
2023/05/22 11:57:27;;;;;;;17.60;13.97;;;23.00;99.90;;;;;;5009630;28;20854;-78
2023/05/22 11:59:52;;;;;;;14.63;13.00;;;22.80;99.90;;;;;;5003851;28;20435;-77
2023/05/22 12:02:19;;;;;;;18.90;14.30;;;22.70;99.90;;;;;;5008361;28;20420;-77
2023/05/22 12:04:45;;;;;;;15.15;13.45;;;22.90;99.90;;;;;;5022632;28;20535;-85
2023/05/22 12:07:11;;;;;;;16.35;14.60;;;22.60;99.90;;;;;;5008258;28;20421;-82
2023/05/22 12:09:41;;;;;;;18.90;14.57;;;22.50;99.90;;;;;;5002275;28;20488;-82
2023/05/22 12:12:10;;;;;;;15.47;13.93;;;22.80;99.90;;;;;;5010582;28;20433;-76
2023/05/22 12:14:36;;;;;;;17.08;15.30;;;22.30;99.90;;;;;;5002490;28;20432;-81
2023/05/22 12:17:05;;;;;;;16.13;14.50;;;22.00;99.90;;;;;;4992403;28;20428;-80
2023/05/22 12:19:31;;;;;;;15.77;14.00;;;22.30;99.90;;;;;;5017880;28;20489;-78
2023/05/22 12:21:58;;;;;;;16.90;14.50;;;21.90;99.90;;;;;;5015675;28;20417;-79
2023/05/22 12:24:23;;;;;;;18.17;15.82;;;22.10;99.90;;;;;;5017122;28;20429;-79
2023/05/22 12:26:50;;;;;;;16.55;14.48;;;22.30;99.90;;;;;;5001848;28;20928;-77
2023/05/22 12:29:16;;;;;;;17.95;14.52;;;22.40;99.90;;;;;;5007881;28;20779;-78
2023/05/22 12:31:45;;;;;;;19.80;14.43;;;22.00;99.90;;;;;;5017875;28;20432;-78
2023/05/22 12:34:11;;;;;;;16.40;12.50;;;22.10;99.90;;;;;;4991434;28;20432;-78
2023/05/22 12:36:41;;;;;;;16.58;12.48;;;22.00;99.90;;;;;;5011323;28;20434;-78